createdAt,value
2018-04-17T00:01:16.806Z,11.40
2018-04-17T00:03:44.357Z,11.30
2018-04-17T00:06:11.927Z,11.40
2018-04-17T00:08:39.481Z,11.30
2018-04-17T00:11:07.053Z,11.30
2018-04-17T00:13:34.598Z,11.20
2018-04-17T00:16:02.177Z,11.00
2018-04-17T00:18:29.728Z,11.10
2018-04-17T00:20:57.296Z,11.10
2018-04-17T00:23:24.841Z,11.00
2018-04-17T00:25:52.393Z,11.00
2018-04-17T00:28:19.956Z,11.00
2018-04-17T00:30:47.501Z,11.00
2018-04-17T00:33:15.073Z,11.00
2018-04-17T00:35:42.679Z,10.90
2018-04-17T00:38:10.258Z,10.80
2018-04-17T00:40:37.810Z,10.70
2018-04-17T00:43:05.378Z,10.60
2018-04-17T00:45:32.924Z,10.50
2018-04-17T00:48:00.502Z,10.60
2018-04-17T00:50:28.054Z,10.60
2018-04-17T00:52:55.624Z,10.70
2018-04-17T00:55:23.165Z,10.60
2018-04-17T00:57:50.742Z,10.50
2018-04-17T01:00:18.295Z,10.50
2018-04-17T01:02:45.874Z,10.50
2018-04-17T01:05:13.420Z,10.40
2018-04-17T01:07:40.989Z,10.30
2018-04-17T01:10:08.592Z,10.40
2018-04-17T01:12:36.921Z,10.30
2018-04-17T01:15:04.518Z,10.30
2018-04-17T01:17:32.081Z,10.30
2018-04-17T01:19:59.628Z,10.10
2018-04-17T01:22:27.197Z,10.10
2018-04-17T01:24:54.744Z,10.00
2018-04-17T01:27:22.280Z,10.00
2018-04-17T01:29:49.832Z,10.20
2018-04-17T01:32:17.373Z,10.20
2018-04-17T01:34:44.940Z,10.00
2018-04-17T01:37:12.477Z,9.90
2018-04-17T01:39:40.033Z,9.90
2018-04-17T01:42:07.565Z,9.90
2018-04-17T01:44:35.126Z,9.80
2018-04-17T01:47:02.671Z,9.70
2018-04-17T01:49:30.232Z,9.60
2018-04-17T01:51:57.765Z,9.60
2018-04-17T01:54:25.325Z,9.70
2018-04-17T01:56:52.865Z,9.80
2018-04-17T01:59:20.422Z,9.80
2018-04-17T02:01:47.952Z,9.70
2018-04-17T02:04:15.516Z,9.60
2018-04-17T02:06:43.050Z,9.60
2018-04-17T02:09:10.603Z,9.60
2018-04-17T02:11:38.141Z,9.60
2018-04-17T02:14:05.696Z,9.70
2018-04-17T02:16:33.232Z,9.60
2018-04-17T02:19:00.795Z,9.50
2018-04-17T02:21:28.345Z,9.40
2018-04-17T02:23:55.909Z,9.50
2018-04-17T02:26:23.466Z,9.40
2018-04-17T02:28:51.205Z,9.30
2018-04-17T02:31:18.757Z,9.40
2018-04-17T02:33:47.886Z,9.20
2018-04-17T02:36:15.437Z,9.20
2018-04-17T02:38:43.036Z,9.30
2018-04-17T02:41:10.584Z,9.50
2018-04-17T02:43:38.150Z,9.50
2018-04-17T02:46:05.696Z,9.40
2018-04-17T02:48:33.250Z,9.30
2018-04-17T02:51:00.827Z,9.10
2018-04-17T02:53:28.366Z,9.30
2018-04-17T02:55:55.933Z,9.20
2018-04-17T02:58:23.474Z,9.30
2018-04-17T03:00:51.037Z,9.40
2018-04-17T03:03:18.572Z,9.10
2018-04-17T03:05:46.147Z,9.00
2018-04-17T03:08:13.693Z,9.10
2018-04-17T03:10:41.258Z,9.10
2018-04-17T03:13:08.805Z,9.10
2018-04-17T03:15:36.374Z,9.10
2018-04-17T03:18:03.938Z,9.00
2018-04-17T03:20:31.510Z,8.90
2018-04-17T03:22:59.058Z,8.90
2018-04-17T03:25:26.629Z,8.90
2018-04-17T03:27:54.977Z,8.90
2018-04-17T03:30:22.541Z,8.80
2018-04-17T03:32:50.090Z,8.80
2018-04-17T03:35:17.670Z,8.80
2018-04-17T03:37:45.219Z,8.80
2018-04-17T03:40:12.788Z,8.80
2018-04-17T03:42:40.338Z,8.80
2018-04-17T03:45:07.905Z,8.80
2018-04-17T03:47:35.450Z,8.80
2018-04-17T03:50:03.013Z,8.80
2018-04-17T03:52:30.557Z,8.60
2018-04-17T03:54:58.109Z,8.60
2018-04-17T03:57:25.691Z,8.60
2018-04-17T03:59:53.241Z,8.70
2018-04-17T04:02:20.809Z,8.60
2018-04-17T04:04:48.352Z,8.60
2018-04-17T04:07:15.918Z,8.50
2018-04-17T04:09:43.469Z,8.70
2018-04-17T04:12:11.034Z,8.60
2018-04-17T04:14:38.580Z,8.60
2018-04-17T04:17:17.874Z,8.50
2018-04-17T04:19:57.269Z,8.50
2018-04-17T04:22:36.557Z,8.40
2018-04-17T04:25:15.845Z,8.50
2018-04-17T04:27:43.416Z,8.60
2018-04-17T04:30:10.956Z,8.50
2018-04-17T04:32:38.531Z,8.40
2018-04-17T04:35:06.079Z,8.30
2018-04-17T04:37:33.645Z,8.40
2018-04-17T04:40:01.193Z,8.40
2018-04-17T04:42:28.758Z,8.30
2018-04-17T04:44:57.065Z,8.30
2018-04-17T04:47:24.643Z,8.30
2018-04-17T04:49:52.185Z,8.30
2018-04-17T04:52:19.749Z,8.30
2018-04-17T04:54:47.309Z,8.40
2018-04-17T04:57:14.879Z,8.30
2018-04-17T04:59:43.198Z,8.30
2018-04-17T05:02:10.768Z,8.40
2018-04-17T05:04:38.304Z,8.40
2018-04-17T05:07:05.874Z,8.40
2018-04-17T05:09:33.415Z,8.40
2018-04-17T05:12:00.990Z,8.30
2018-04-17T05:14:28.543Z,8.40
2018-04-17T05:16:56.118Z,8.40
2018-04-17T05:19:23.663Z,8.40
2018-04-17T05:21:51.230Z,8.50
2018-04-17T05:24:18.808Z,8.50
2018-04-17T05:26:46.818Z,8.50
2018-04-17T05:29:15.158Z,8.70
2018-04-17T05:31:42.708Z,8.70
2018-04-17T05:34:10.293Z,8.60
2018-04-17T05:36:37.849Z,8.60
2018-04-17T05:39:05.430Z,8.70
2018-04-17T05:41:32.974Z,8.90
2018-04-17T05:44:00.549Z,9.10
2018-04-17T05:46:28.872Z,9.60
2018-04-17T05:48:56.439Z,9.60
2018-04-17T05:51:23.992Z,10.10
2018-04-17T05:53:51.701Z,10.60
2018-04-17T05:56:19.251Z,11.10
2018-04-17T05:58:46.821Z,11.70
2018-04-17T06:01:15.133Z,12.60
2018-04-17T06:03:42.705Z,12.60
2018-04-17T06:06:10.258Z,13.00
2018-04-17T06:08:37.819Z,13.40
2018-04-17T06:11:05.365Z,13.80
2018-04-17T06:13:32.928Z,14.20
2018-04-17T06:16:00.482Z,14.50
2018-04-17T06:18:29.274Z,15.00
2018-04-17T06:20:56.833Z,15.40
2018-04-17T06:23:24.406Z,15.80
2018-04-17T06:25:51.953Z,16.20
2018-04-17T06:28:19.529Z,16.70
2018-04-17T06:30:47.093Z,17.00
2018-04-17T06:33:14.636Z,17.40
2018-04-17T06:35:42.212Z,17.80
2018-04-17T06:38:09.770Z,18.30
2018-04-17T06:40:37.346Z,18.70
2018-04-17T06:43:04.898Z,19.20
2018-04-17T06:45:32.465Z,19.70
2018-04-17T06:48:00.022Z,20.20
2018-04-17T06:50:27.597Z,20.50
2018-04-17T06:52:55.141Z,21.00
2018-04-17T06:55:22.726Z,21.30
2018-04-17T06:57:51.048Z,22.10
2018-04-17T07:00:18.621Z,22.10
2018-04-17T07:02:46.170Z,22.50
2018-04-17T07:05:13.767Z,22.90
2018-04-17T07:07:41.425Z,23.30
2018-04-17T07:10:09.757Z,24.20
2018-04-17T07:12:37.309Z,24.10
2018-04-17T07:15:04.881Z,24.60
2018-04-17T07:17:32.431Z,24.80
2018-04-17T07:20:00.008Z,25.20
2018-04-17T07:22:27.570Z,25.50
2018-04-17T07:24:55.149Z,25.70
2018-04-17T07:27:23.467Z,26.40
2018-04-17T07:29:51.045Z,26.40
2018-04-17T07:32:18.593Z,26.70
2018-04-17T07:34:46.178Z,27.10
2018-04-17T07:37:13.812Z,27.10
2018-04-17T07:39:41.442Z,27.10
2018-04-17T07:42:09.902Z,28.10
2018-04-17T07:44:37.587Z,28.00
2018-04-17T07:47:17.025Z,28.30
2018-04-17T07:49:44.578Z,28.70
2018-04-17T07:52:12.916Z,29.40
2018-04-17T07:54:40.466Z,29.30
2018-04-17T07:57:09.689Z,30.00
2018-04-17T07:59:37.255Z,30.00
2018-04-17T08:02:04.884Z,30.20
2018-04-17T08:04:32.443Z,30.30
2018-04-17T08:07:00.073Z,30.50
2018-04-17T08:09:27.623Z,30.60
2018-04-17T08:11:55.196Z,30.70
2018-04-17T08:14:22.751Z,31.10
2018-04-17T08:16:50.328Z,31.20
2018-04-17T08:19:17.880Z,31.40
2018-04-17T08:21:45.446Z,31.50
2018-04-17T08:24:12.995Z,31.90
2018-04-17T08:26:40.574Z,31.80
2018-04-17T08:29:08.122Z,32.10
2018-04-17T08:31:35.697Z,32.30
2018-04-17T08:34:03.286Z,32.20
2018-04-17T08:36:31.625Z,32.90
2018-04-17T08:38:59.186Z,32.90
2018-04-17T08:41:26.763Z,33.10
2018-04-17T08:43:54.321Z,33.20
2018-04-17T08:46:21.893Z,33.60
2018-04-17T08:48:50.241Z,34.10
2018-04-17T08:51:17.932Z,34.00
2018-04-17T08:53:46.359Z,34.00
2018-04-17T08:56:13.914Z,34.00
2018-04-17T08:58:41.489Z,34.40
2018-04-17T09:01:09.047Z,34.60
2018-04-17T09:03:36.618Z,34.50
2018-04-17T09:06:04.170Z,34.70
2018-04-17T09:08:31.749Z,34.80
2018-04-17T09:10:59.302Z,34.80
2018-04-17T09:13:26.872Z,34.90
2018-04-17T09:15:54.421Z,35.40
2018-04-17T09:18:21.999Z,35.30
2018-04-17T09:20:49.549Z,35.50
2018-04-17T09:23:17.121Z,35.50
2018-04-17T09:25:44.668Z,35.60
2018-04-17T09:28:12.243Z,35.50
2018-04-17T09:30:40.560Z,36.20
2018-04-17T09:33:08.144Z,36.10
2018-04-17T09:35:35.695Z,36.10
2018-04-17T09:38:03.269Z,36.10
2018-04-17T09:40:30.821Z,36.40
2018-04-17T09:42:58.394Z,36.60
2018-04-17T09:45:25.957Z,36.80
2018-04-17T09:47:53.529Z,37.00
2018-04-17T09:50:21.081Z,37.00
2018-04-17T09:52:48.653Z,37.00
2018-04-17T09:55:16.973Z,37.70
2018-04-17T09:57:44.546Z,37.70
2018-04-17T10:00:12.102Z,37.70
2018-04-17T10:02:39.676Z,37.70
2018-04-17T10:05:07.226Z,37.70
2018-04-17T10:07:34.783Z,37.70
2018-04-17T10:10:02.359Z,37.90
2018-04-17T10:12:29.926Z,38.00
2018-04-17T10:14:57.511Z,37.70
2018-04-17T10:17:25.068Z,37.60
2018-04-17T10:19:52.665Z,37.70
2018-04-17T10:22:20.208Z,37.50
2018-04-17T10:24:47.786Z,37.30
2018-04-17T10:27:15.342Z,37.40
2018-04-17T10:29:42.917Z,37.30
2018-04-17T10:32:10.464Z,37.00
2018-04-17T10:34:38.046Z,37.10
2018-04-17T10:37:05.602Z,37.40
2018-04-17T10:39:33.169Z,37.70
2018-04-17T10:42:00.713Z,37.00
2018-04-17T10:44:28.289Z,36.70
2018-04-17T10:46:55.841Z,36.60
2018-04-17T10:49:23.412Z,36.20
2018-04-17T10:51:50.965Z,35.80
2018-04-17T10:54:18.538Z,35.30
2018-04-17T10:56:46.086Z,34.90
2018-04-17T10:59:13.673Z,34.40
2018-04-17T11:01:41.220Z,34.00
2018-04-17T11:04:08.837Z,33.60
2018-04-17T11:06:36.366Z,33.20
2018-04-17T11:09:03.942Z,33.20
2018-04-17T11:11:31.587Z,33.10
2018-04-17T11:13:59.152Z,32.60
2018-04-17T11:16:26.698Z,32.60
2018-04-17T11:18:54.283Z,32.10
2018-04-17T11:21:21.902Z,32.10
2018-04-17T11:23:49.468Z,32.00
2018-04-17T11:26:17.017Z,31.80
2018-04-17T11:28:44.606Z,31.40
2018-04-17T11:31:12.153Z,31.40
2018-04-17T11:33:39.717Z,31.40
2018-04-17T11:36:07.285Z,31.40
2018-04-17T11:38:34.839Z,31.10
2018-04-17T11:41:02.419Z,30.90
2018-04-17T11:43:29.977Z,30.80
2018-04-17T11:45:57.543Z,30.60
2018-04-17T11:48:25.088Z,30.30
2018-04-17T11:50:53.421Z,30.00
2018-04-17T11:53:20.974Z,30.00
2018-04-17T11:55:48.553Z,29.70
2018-04-17T11:58:16.097Z,29.60
2018-04-17T12:00:43.669Z,29.30
2018-04-17T12:03:11.212Z,29.00
2018-04-17T12:05:39.549Z,29.00
2018-04-17T12:08:07.107Z,29.00
2018-04-17T12:10:34.848Z,29.00
2018-04-17T12:13:02.412Z,28.80
2018-04-17T12:15:29.988Z,28.80
2018-04-17T12:17:57.539Z,28.70
2018-04-17T12:20:25.132Z,28.70
2018-04-17T12:22:52.685Z,28.60
2018-04-17T12:25:20.261Z,28.60
2018-04-17T12:27:47.812Z,28.20
2018-04-17T12:30:15.380Z,28.30
2018-04-17T12:32:43.698Z,28.50
2018-04-17T12:35:11.274Z,28.50
2018-04-17T12:37:38.822Z,28.50
2018-04-17T12:40:06.422Z,28.50
2018-04-17T12:42:34.735Z,28.60
2018-04-17T12:45:03.407Z,28.60
2018-04-17T12:47:30.965Z,28.30
2018-04-17T12:49:58.539Z,28.20
2018-04-17T12:52:26.089Z,28.20
2018-04-17T12:54:53.670Z,28.20
2018-04-17T12:57:21.217Z,27.90
2018-04-17T12:59:48.797Z,28.00
2018-04-17T13:02:16.353Z,28.10
2018-04-17T13:04:43.929Z,28.10
2018-04-17T13:07:11.473Z,28.00
2018-04-17T13:09:39.021Z,28.10
2018-04-17T13:12:06.605Z,28.20
2018-04-17T13:14:34.148Z,28.10
2018-04-17T13:17:01.723Z,28.20
2018-04-17T13:19:29.265Z,28.10
2018-04-17T13:21:56.845Z,27.80
2018-04-17T13:24:24.402Z,27.80
2018-04-17T13:26:51.977Z,27.80
2018-04-17T13:29:19.530Z,27.60
2018-04-17T13:31:47.774Z,27.50
2018-04-17T13:34:16.089Z,27.60
2018-04-17T13:36:43.669Z,27.60
2018-04-17T13:39:11.217Z,27.70
2018-04-17T13:41:39.571Z,27.70
2018-04-17T13:44:07.974Z,27.70
2018-04-17T13:46:36.317Z,27.60
2018-04-17T13:49:03.873Z,27.60
2018-04-17T13:51:32.053Z,27.30
2018-04-17T13:53:59.621Z,27.40
2018-04-17T13:56:27.198Z,27.50
2018-04-17T13:58:55.521Z,27.50
2018-04-17T14:01:23.093Z,27.50
2018-04-17T14:03:50.641Z,27.50
2018-04-17T14:06:18.218Z,27.50
2018-04-17T14:08:45.778Z,27.50
2018-04-17T14:11:13.358Z,27.50
2018-04-17T14:13:41.682Z,27.40
2018-04-17T14:16:09.255Z,27.40
2018-04-17T14:18:36.805Z,27.40
2018-04-17T14:21:04.373Z,27.20
2018-04-17T14:23:31.929Z,27.10
2018-04-17T14:25:59.503Z,26.80
2018-04-17T14:28:27.046Z,26.90
2018-04-17T14:30:54.614Z,26.70
2018-04-17T14:33:22.201Z,26.40
2018-04-17T14:35:49.761Z,26.50
2018-04-17T14:38:17.314Z,26.50
2018-04-17T14:40:44.904Z,26.40
2018-04-17T14:43:12.458Z,26.40
2018-04-17T14:45:40.807Z,26.30
2018-04-17T14:48:08.378Z,26.30
2018-04-17T14:50:35.933Z,26.30
2018-04-17T14:53:03.508Z,26.40
2018-04-17T14:55:31.831Z,26.30
2018-04-17T14:57:59.399Z,26.20
2018-04-17T15:00:26.962Z,26.20
2018-04-17T15:02:55.299Z,26.20
2018-04-17T15:05:22.854Z,26.10
2018-04-17T15:07:50.420Z,26.10
2018-04-17T15:10:17.963Z,26.10
2018-04-17T15:12:45.528Z,26.00
2018-04-17T15:15:13.093Z,26.00
2018-04-17T15:17:40.668Z,25.80
2018-04-17T15:20:08.209Z,25.70
2018-04-17T15:22:35.777Z,25.60
2018-04-17T15:25:03.326Z,25.50
2018-04-17T15:27:30.900Z,25.70
2018-04-17T15:29:58.454Z,25.60
2018-04-17T15:32:26.034Z,25.60
2018-04-17T15:34:53.581Z,25.60
2018-04-17T15:37:21.161Z,25.50
2018-04-17T15:39:48.707Z,25.50
2018-04-17T15:42:16.278Z,25.50
2018-04-17T15:44:43.825Z,25.40
2018-04-17T15:47:11.406Z,25.50
2018-04-17T15:49:38.962Z,25.40
2018-04-17T15:52:06.537Z,25.40
2018-04-17T15:54:34.105Z,25.40
2018-04-17T15:57:01.686Z,25.30
2018-04-17T15:59:29.245Z,25.40
2018-04-17T16:01:56.813Z,25.20
2018-04-17T16:04:24.366Z,25.20
2018-04-17T16:06:51.946Z,25.20
2018-04-17T16:09:19.496Z,25.10
2018-04-17T16:11:47.111Z,25.10
2018-04-17T16:14:14.666Z,25.00
2018-04-17T16:16:42.246Z,25.10
2018-04-17T16:19:10.560Z,24.90
2018-04-17T16:21:38.118Z,24.90
2018-04-17T16:24:05.698Z,24.70
2018-04-17T16:26:34.017Z,24.80
2018-04-17T16:29:02.357Z,24.80
2018-04-17T16:31:29.901Z,24.80
2018-04-17T16:33:57.469Z,24.70
2018-04-17T16:36:25.021Z,24.70
2018-04-17T16:38:52.591Z,24.60
2018-04-17T16:41:20.137Z,24.60
2018-04-17T16:43:47.705Z,24.60
2018-04-17T16:46:15.254Z,24.50
2018-04-17T16:48:42.834Z,24.40
2018-04-17T16:51:10.438Z,24.50
2018-04-17T16:53:37.973Z,24.40
2018-04-17T16:56:05.524Z,24.30
2018-04-17T16:58:33.870Z,24.30
2018-04-17T17:01:01.414Z,24.20
2018-04-17T17:03:28.985Z,24.20
2018-04-17T17:05:57.139Z,24.20
2018-04-17T17:08:24.718Z,24.10
2018-04-17T17:10:52.285Z,24.00
2018-04-17T17:13:19.861Z,23.90
2018-04-17T17:15:47.409Z,23.90
2018-04-17T17:18:14.994Z,23.80
2018-04-17T17:20:42.545Z,23.80
2018-04-17T17:23:10.524Z,23.70
2018-04-17T17:25:38.801Z,23.60
2018-04-17T17:28:06.419Z,23.60
2018-04-17T17:30:33.973Z,23.60
2018-04-17T17:33:03.174Z,23.50
2018-04-17T17:35:30.720Z,23.40
2018-04-17T17:37:58.288Z,23.40
2018-04-17T17:40:26.632Z,23.30
2018-04-17T17:42:54.208Z,23.30
2018-04-17T17:45:21.769Z,23.20
2018-04-17T17:47:49.403Z,23.10
2018-04-17T17:50:16.954Z,23.00
2018-04-17T17:52:45.293Z,22.90
2018-04-17T17:55:12.866Z,22.90
2018-04-17T17:57:40.414Z,22.90
2018-04-17T18:00:07.989Z,22.80
2018-04-17T18:02:36.310Z,22.50
2018-04-17T18:05:03.901Z,22.60
2018-04-17T18:07:31.469Z,22.50
2018-04-17T18:09:59.049Z,22.40
2018-04-17T18:12:26.729Z,22.40
2018-04-17T18:14:54.302Z,22.30
2018-04-17T18:17:21.859Z,22.20
2018-04-17T18:19:49.430Z,22.10
2018-04-17T18:22:16.978Z,22.00
2018-04-17T18:24:44.777Z,21.80
2018-04-17T18:27:12.324Z,21.70
2018-04-17T18:29:40.367Z,21.50
2018-04-17T18:32:07.970Z,21.40
2018-04-17T18:34:35.529Z,21.30
2018-04-17T18:37:03.130Z,21.00
2018-04-17T18:39:30.733Z,20.90
2018-04-17T18:41:58.462Z,21.00
2018-04-17T18:44:26.077Z,20.80
2018-04-17T18:46:53.852Z,20.70
2018-04-17T18:49:21.484Z,20.50
2018-04-17T18:51:49.335Z,20.50
2018-04-17T18:54:17.002Z,20.40
2018-04-17T18:56:44.555Z,20.10
2018-04-17T18:59:12.501Z,19.90
2018-04-17T19:01:40.575Z,19.90
2018-04-17T19:04:08.578Z,19.90
2018-04-17T19:06:37.296Z,19.50
2018-04-17T19:09:06.065Z,19.50
2018-04-17T19:11:33.885Z,19.60
2018-04-17T19:14:01.769Z,19.30
2018-04-17T19:16:29.600Z,19.20
2018-04-17T19:18:57.825Z,18.90
2018-04-17T19:21:26.985Z,19.10
2018-04-17T19:23:54.833Z,18.90
2018-04-17T19:26:22.719Z,18.80
2018-04-17T19:28:50.301Z,18.60
2018-04-17T19:31:17.878Z,18.70
2018-04-17T19:33:45.429Z,18.60
2018-04-17T19:36:13.005Z,18.40
2018-04-17T19:38:40.557Z,18.20
2018-04-17T19:41:08.129Z,18.00
2018-04-17T19:43:35.685Z,18.00
2018-04-17T19:46:03.257Z,17.80
2018-04-17T19:48:30.809Z,18.00
2018-04-17T19:50:59.443Z,17.80
2018-04-17T19:53:26.998Z,17.80
2018-04-17T19:55:54.564Z,17.70
2018-04-17T19:58:22.137Z,17.70
2018-04-17T20:00:50.017Z,17.40
2018-04-17T20:03:17.598Z,17.40
2018-04-17T20:05:45.169Z,17.20
2018-04-17T20:08:13.485Z,16.90
2018-04-17T20:10:41.045Z,16.90
2018-04-17T20:13:08.673Z,16.90
2018-04-17T20:15:36.239Z,16.80
2018-04-17T20:18:03.789Z,16.90
2018-04-17T20:20:31.370Z,16.90
2018-04-17T20:22:58.920Z,16.90
2018-04-17T20:25:26.484Z,16.70
2018-04-17T20:27:54.034Z,16.60
2018-04-17T20:30:21.606Z,16.50
2018-04-17T20:32:49.246Z,16.20
2018-04-17T20:35:16.817Z,16.30
2018-04-17T20:37:44.367Z,16.20
2018-04-17T20:40:11.937Z,16.00
2018-04-17T20:42:39.489Z,16.00
2018-04-17T20:45:07.064Z,16.00
2018-04-17T20:47:34.613Z,15.90
2018-04-17T20:50:02.234Z,16.00
2018-04-17T20:52:29.785Z,16.00
2018-04-17T20:54:57.352Z,15.90
2018-04-17T20:57:24.908Z,15.90
2018-04-17T20:59:52.448Z,15.70
2018-04-17T21:02:20.022Z,15.70
2018-04-17T21:04:47.718Z,15.50
2018-04-17T21:07:15.294Z,15.50
2018-04-17T21:09:42.841Z,15.40
2018-04-17T21:12:10.415Z,15.30
2018-04-17T21:14:37.965Z,15.30
2018-04-17T21:17:05.542Z,15.30
2018-04-17T21:19:33.093Z,15.20
2018-04-17T21:22:00.666Z,15.00
2018-04-17T21:24:28.211Z,14.90
2018-04-17T21:26:55.774Z,15.10
2018-04-17T21:29:23.330Z,15.10
2018-04-17T21:31:50.906Z,15.10
2018-04-17T21:34:19.244Z,15.00
2018-04-17T21:36:46.818Z,14.90
2018-04-17T21:39:14.417Z,14.70
2018-04-17T21:41:41.989Z,14.90
2018-04-17T21:44:09.545Z,14.90
2018-04-17T21:46:37.117Z,14.90
2018-04-17T21:49:04.669Z,14.70
2018-04-17T21:51:32.233Z,14.60
2018-04-17T21:54:00.554Z,14.50
2018-04-17T21:56:28.135Z,14.50
2018-04-17T21:58:55.738Z,14.40
2018-04-17T22:01:29.177Z,14.30
2018-04-17T22:03:56.732Z,14.20
2018-04-17T22:06:24.306Z,14.30
2018-04-17T22:08:51.858Z,14.10
2018-04-17T22:11:19.434Z,14.10
2018-04-17T22:13:46.991Z,14.00
2018-04-17T22:16:15.374Z,13.90
2018-04-17T22:18:42.919Z,13.90
2018-04-17T22:21:10.497Z,13.80
2018-04-17T22:23:38.045Z,13.90
2018-04-17T22:26:05.620Z,13.80
2018-04-17T22:28:33.178Z,13.70
2018-04-17T22:31:00.729Z,13.80
2018-04-17T22:33:28.297Z,14.00
2018-04-17T22:35:55.853Z,13.80
2018-04-17T22:38:23.421Z,13.60
2018-04-17T22:40:51.742Z,13.70
2018-04-17T22:43:19.312Z,13.70
2018-04-17T22:45:46.863Z,13.70
2018-04-17T22:48:14.437Z,13.50
2018-04-17T22:50:41.992Z,13.50
2018-04-17T22:53:09.553Z,13.60
2018-04-17T22:55:37.105Z,13.50
2018-04-17T22:58:04.716Z,13.40
2018-04-17T23:00:32.256Z,13.30
2018-04-17T23:02:59.827Z,13.30
2018-04-17T23:05:27.377Z,13.30
2018-04-17T23:07:54.949Z,13.30
2018-04-17T23:10:23.257Z,13.30
2018-04-17T23:12:50.835Z,13.20
2018-04-17T23:15:18.566Z,13.20
2018-04-17T23:17:46.144Z,13.10
2018-04-17T23:20:13.692Z,13.00
2018-04-17T23:22:41.262Z,13.20
2018-04-17T23:25:08.823Z,13.10
2018-04-17T23:27:36.393Z,13.00
2018-04-17T23:30:03.942Z,13.00
2018-04-17T23:32:31.517Z,13.00
2018-04-17T23:34:59.061Z,12.90
2018-04-17T23:37:26.629Z,12.90
2018-04-17T23:39:54.181Z,12.90
2018-04-17T23:42:21.753Z,12.80
2018-04-17T23:44:49.297Z,12.90
2018-04-17T23:47:16.869Z,12.80
2018-04-17T23:49:44.425Z,12.80
2018-04-17T23:52:12.002Z,12.70
2018-04-17T23:54:39.554Z,12.60
2018-04-17T23:57:07.129Z,12.50
2018-04-17T23:59:34.676Z,12.60
